Time;durP1;ratioP1;P1;durP2;ratioP2;P2;SDS_P1;SDS_P2;PMS_P1;PMS_P2;Temp;Humidity;BMP_temperature;BMP_pressure;BME280_temperature;BME280_humidity;BME280_pressure;Samples;Min_cycle;Max_cycle;Signal;HPM_P1;HPM_P2
2022/04/26 03:37:25;;;;;;;1.50;1.00;;;10.20;98.20;;;;;;5045438;28;20485;-75
2022/04/26 03:39:52;;;;;;;1.50;1.10;;;10.30;98.20;;;;;;5047605;28;20465;-75
2022/04/26 03:42:19;;;;;;;1.43;1.00;;;10.30;98.20;;;;;;5047464;28;20450;-76
2022/04/26 03:44:46;;;;;;;1.50;1.10;;;10.20;98.20;;;;;;5048128;28;20455;-75
2022/04/26 03:47:13;;;;;;;1.50;1.10;;;10.20;98.20;;;;;;5046498;28;20486;-75
2022/04/26 03:49:41;;;;;;;1.50;1.10;;;10.20;98.20;;;;;;5047264;28;20866;-75
2022/04/26 03:52:08;;;;;;;1.50;1.10;;;10.20;98.20;;;;;;5041336;28;20844;-75
2022/04/26 03:54:35;;;;;;;1.50;1.10;;;10.20;98.20;;;;;;5041086;28;20462;-75
2022/04/26 03:57:02;;;;;;;1.50;1.10;;;10.20;98.20;;;;;;5040779;28;20505;-76
2022/04/26 03:59:29;;;;;;;1.47;1.10;;;10.20;98.20;;;;;;5046335;28;20475;-76
2022/04/26 04:01:56;;;;;;;1.50;1.10;;;10.20;98.20;;;;;;5038666;28;21226;-75
2022/04/26 04:04:22;;;;;;;1.43;1.10;;;10.30;98.20;;;;;;5047726;28;20470;-76
2022/04/26 04:06:51;;;;;;;1.50;1.10;;;10.30;98.20;;;;;;5042777;28;20488;-75
2022/04/26 04:09:17;;;;;;;1.47;1.00;;;10.30;98.20;;;;;;5047321;28;20458;-75
2022/04/26 04:11:44;;;;;;;1.50;1.00;;;10.30;98.20;;;;;;5044010;28;20498;-75
2022/04/26 04:14:11;;;;;;;1.50;1.10;;;10.30;98.20;;;;;;5047503;28;20469;-75
2022/04/26 04:16:37;;;;;;;1.50;1.17;;;10.30;98.20;;;;;;5048030;28;21172;-75
2022/04/26 04:19:20;;;;;;;1.50;1.00;;;10.30;98.20;;;;;;5044135;28;20462;-76
2022/04/26 04:21:48;;;;;;;1.50;1.10;;;10.30;98.20;;;;;;5051304;28;20460;-75
2022/04/26 04:24:16;;;;;;;1.50;1.10;;;10.30;98.20;;;;;;5049902;28;20458;-75
2022/04/26 04:26:43;;;;;;;1.50;1.20;;;10.30;98.20;;;;;;5044985;28;20509;-76
2022/04/26 04:29:10;;;;;;;1.50;1.00;;;10.30;98.20;;;;;;5051050;28;20782;-76
2022/04/26 04:31:37;;;;;;;1.50;1.10;;;10.30;98.20;;;;;;5038849;28;20473;-75
2022/04/26 04:34:04;;;;;;;1.47;1.10;;;10.30;98.20;;;;;;5046699;28;20462;-76
2022/04/26 04:36:31;;;;;;;1.47;1.10;;;10.30;98.20;;;;;;5046379;28;20494;-75
2022/04/26 04:38:58;;;;;;;1.50;1.10;;;10.20;98.20;;;;;;5049068;28;20805;-76
2022/04/26 04:41:26;;;;;;;1.50;1.10;;;10.20;98.20;;;;;;5046659;28;20454;-76
2022/04/26 04:43:53;;;;;;;1.47;1.10;;;10.20;98.20;;;;;;5050526;28;20458;-76
2022/04/26 04:46:20;;;;;;;1.50;1.10;;;10.20;98.20;;;;;;5050041;28;20510;-76
2022/04/26 04:48:47;;;;;;;1.50;1.10;;;10.30;98.20;;;;;;5050338;28;20469;-75
2022/04/26 04:51:13;;;;;;;1.50;1.10;;;10.30;98.20;;;;;;5049375;28;20469;-76
2022/04/26 04:53:40;;;;;;;1.50;1.20;;;10.20;98.20;;;;;;5050168;28;21013;-76
2022/04/26 04:56:09;;;;;;;1.50;1.00;;;10.30;98.20;;;;;;5048797;28;20841;-75
2022/04/26 04:58:38;;;;;;;1.50;1.10;;;10.30;98.20;;;;;;5050633;28;20535;-76
2022/04/26 05:01:05;;;;;;;1.50;1.10;;;10.30;98.20;;;;;;5043485;28;20463;-76
2022/04/26 05:03:31;;;;;;;1.47;1.10;;;10.30;98.20;;;;;;5040375;28;20462;-75
2022/04/26 05:05:58;;;;;;;1.50;1.10;;;10.30;98.20;;;;;;5048768;28;20573;-76
2022/04/26 05:08:25;;;;;;;1.50;1.10;;;10.20;98.20;;;;;;5048079;28;20463;-76
2022/04/26 05:10:52;;;;;;;1.43;1.10;;;10.10;98.20;;;;;;5049218;28;20954;-76
2022/04/26 05:13:19;;;;;;;3.40;3.10;;;10.20;98.20;;;;;;5049022;28;20517;-76
2022/04/26 05:15:47;;;;;;;1.40;1.00;;;10.10;98.20;;;;;;5050088;28;20469;-76
2022/04/26 05:18:14;;;;;;;1.47;1.10;;;10.00;98.20;;;;;;5049784;28;20478;-76
2022/04/26 05:20:41;;;;;;;1.43;1.10;;;10.00;98.20;;;;;;5049125;28;20494;-76
2022/04/26 05:25:52;;;;;;;1.50;1.10;;;10.00;98.20;;;;;;5049037;28;20441;-76
2022/04/26 05:28:19;;;;;;;1.47;1.00;;;10.00;98.20;;;;;;5040627;28;20463;-76
2022/04/26 05:30:47;;;;;;;1.50;1.17;;;10.00;98.20;;;;;;5037510;28;20853;-76
2022/04/26 05:33:14;;;;;;;1.50;1.00;;;10.00;98.20;;;;;;5046199;28;20485;-76
2022/04/26 05:35:41;;;;;;;1.47;1.10;;;10.00;98.20;;;;;;5045977;28;20486;-76
2022/04/26 05:38:07;;;;;;;1.50;1.10;;;9.90;98.20;;;;;;5045635;28;21121;-76
2022/04/26 05:40:34;;;;;;;1.50;1.10;;;9.90;98.20;;;;;;5046598;28;20473;-76
2022/04/26 05:43:01;;;;;;;1.43;1.10;;;9.90;98.20;;;;;;5043805;28;20469;-76
2022/04/26 05:45:28;;;;;;;1.40;1.00;;;9.90;98.20;;;;;;5045968;28;20853;-76
2022/04/26 05:47:56;;;;;;;1.50;1.10;;;9.90;98.20;;;;;;5038755;28;20501;-76
2022/04/26 05:50:23;;;;;;;1.47;1.00;;;9.80;98.20;;;;;;5039369;28;20469;-76
2022/04/26 05:52:49;;;;;;;1.47;1.10;;;9.80;98.20;;;;;;5045332;28;20497;-76
2022/04/26 05:55:16;;;;;;;1.47;1.10;;;9.80;98.20;;;;;;5042805;28;20463;-76
2022/04/26 05:57:44;;;;;;;1.43;1.10;;;9.80;98.20;;;;;;5045981;28;20866;-76
2022/04/26 06:00:13;;;;;;;1.50;1.10;;;9.80;98.20;;;;;;5044384;28;20841;-76
2022/04/26 06:02:40;;;;;;;1.43;1.00;;;9.70;98.20;;;;;;5034798;28;20558;-76
2022/04/26 06:05:08;;;;;;;1.50;1.00;;;9.70;98.20;;;;;;5040123;28;20474;-76
2022/04/26 06:07:35;;;;;;;1.50;1.00;;;9.70;98.20;;;;;;5042458;28;20474;-76
2022/04/26 06:10:02;;;;;;;1.50;1.10;;;9.70;98.20;;;;;;5039360;28;20833;-76
2022/04/26 06:12:29;;;;;;;1.50;1.00;;;9.80;98.20;;;;;;5037584;28;20983;-76
2022/04/26 06:14:56;;;;;;;1.50;1.10;;;9.80;98.20;;;;;;5041430;28;20459;-75
2022/04/26 06:17:25;;;;;;;1.50;1.10;;;9.80;98.20;;;;;;5042563;28;21017;-76
2022/04/26 06:19:51;;;;;;;1.43;1.10;;;9.80;98.20;;;;;;5044077;28;20582;-75
2022/04/26 06:22:20;;;;;;;1.50;1.10;;;9.70;98.20;;;;;;5044771;28;20466;-75
2022/04/26 06:24:49;;;;;;;1.50;1.00;;;9.70;98.20;;;;;;5039438;28;20458;-75
2022/04/26 06:27:16;;;;;;;4.73;1.83;;;9.70;98.20;;;;;;5041365;28;20474;-75
2022/04/26 06:29:43;;;;;;;1.47;1.10;;;9.70;98.20;;;;;;5035955;28;21135;-75
2022/04/26 06:32:10;;;;;;;1.43;1.03;;;9.70;98.20;;;;;;5031539;28;20633;-75
2022/04/26 06:34:37;;;;;;;1.60;1.50;;;9.60;98.20;;;;;;5039430;28;20470;-76
2022/04/26 06:37:03;;;;;;;1.50;1.20;;;9.60;98.20;;;;;;5038546;28;21028;-75
2022/04/26 06:39:32;;;;;;;17.73;4.97;;;9.70;98.20;;;;;;5043531;28;20891;-75
2022/04/26 06:41:59;;;;;;;1.70;1.53;;;9.70;98.20;;;;;;5034711;28;20469;-76
2022/04/26 06:44:26;;;;;;;1.50;1.10;;;9.70;98.20;;;;;;5039243;28;20982;-75
2022/04/26 06:46:53;;;;;;;1.47;1.00;;;9.80;98.20;;;;;;5039513;28;20505;-76
2022/04/26 06:49:20;;;;;;;1.47;1.00;;;9.90;98.20;;;;;;5045101;28;20470;-76
2022/04/26 06:51:47;;;;;;;1.50;1.10;;;10.00;98.20;;;;;;5043506;28;20481;-75
2022/04/26 06:54:13;;;;;;;1.47;1.10;;;10.00;98.20;;;;;;5045441;28;20859;-76
2022/04/26 06:56:45;;;;;;;1.50;1.30;;;10.00;98.20;;;;;;5044231;28;20973;-75
2022/04/26 06:59:12;;;;;;;1.50;1.10;;;10.10;98.20;;;;;;5041776;28;20577;-76
2022/04/26 07:01:39;;;;;;;1.47;1.00;;;10.00;98.20;;;;;;5037723;28;20467;-76
2022/04/26 07:04:06;;;;;;;1.50;1.10;;;10.00;98.20;;;;;;5042679;28;20462;-76
2022/04/26 07:06:33;;;;;;;1.47;1.10;;;10.00;98.20;;;;;;5042594;28;20650;-76
2022/04/26 07:09:01;;;;;;;1.50;1.10;;;10.00;98.20;;;;;;5045339;28;20462;-76
2022/04/26 07:11:28;;;;;;;1.50;1.10;;;10.00;98.20;;;;;;5042158;28;20502;-77
2022/04/26 07:13:57;;;;;;;2.90;2.60;;;10.00;98.20;;;;;;5045485;28;20497;-77
2022/04/26 07:16:24;;;;;;;1.50;1.00;;;10.00;98.20;;;;;;5037982;28;20607;-76
2022/04/26 07:18:51;;;;;;;1.50;1.10;;;10.00;98.20;;;;;;5044292;28;20869;-76
2022/04/26 07:21:21;;;;;;;1.50;1.10;;;10.00;98.20;;;;;;5040330;28;21054;-76
2022/04/26 07:23:47;;;;;;;1.47;1.03;;;10.00;98.20;;;;;;5038501;28;20462;-75
2022/04/26 07:26:14;;;;;;;1.50;1.10;;;9.90;98.20;;;;;;5038878;28;20833;-76
2022/04/26 07:28:41;;;;;;;1.50;1.10;;;9.90;98.20;;;;;;5038544;28;20470;-76
2022/04/26 07:31:09;;;;;;;1.50;1.10;;;9.90;98.20;;;;;;5033948;28;20463;-76
2022/04/26 07:36:22;;;;;;;1.47;1.10;;;10.00;98.20;;;;;;5039642;28;20550;-76
2022/04/26 07:38:49;;;;;;;1.43;1.10;;;9.90;98.20;;;;;;5046270;28;20473;-76
2022/04/26 07:41:16;;;;;;;1.40;1.10;;;9.90;98.20;;;;;;5041568;28;20459;-75
2022/04/26 07:43:44;;;;;;;1.50;1.10;;;9.90;98.20;;;;;;5044805;28;20882;-76
2022/04/26 07:46:13;;;;;;;1.87;1.53;;;9.90;98.20;;;;;;5043943;28;20908;-76
2022/04/26 07:48:43;;;;;;;1.50;1.10;;;9.90;98.20;;;;;;5045255;28;20575;-76
2022/04/26 07:51:10;;;;;;;1.50;1.10;;;9.90;98.20;;;;;;5042579;28;20553;-76
2022/04/26 07:53:37;;;;;;;1.50;1.00;;;9.90;98.20;;;;;;5040638;28;20493;-77
2022/04/26 07:56:04;;;;;;;1.50;1.10;;;9.90;98.20;;;;;;5043887;28;21037;-76
2022/04/26 07:58:32;;;;;;;1.50;1.20;;;9.90;98.20;;;;;;5045311;28;20462;-76
2022/04/26 08:00:59;;;;;;;1.43;1.10;;;9.90;98.20;;;;;;5040709;28;20494;-76
2022/04/26 08:03:27;;;;;;;1.50;1.10;;;10.00;98.20;;;;;;5039121;28;21147;-76
2022/04/26 08:05:54;;;;;;;1.50;1.07;;;10.00;98.20;;;;;;5043894;28;20466;-76
2022/04/26 08:08:21;;;;;;;1.50;1.20;;;10.10;98.20;;;;;;5043258;28;20466;-76
2022/04/26 08:10:47;;;;;;;1.50;1.10;;;10.10;98.20;;;;;;5042430;28;21037;-76
2022/04/26 08:13:14;;;;;;;1.47;1.00;;;10.10;98.20;;;;;;5043247;28;20493;-76
2022/04/26 08:15:41;;;;;;;1.50;1.10;;;10.20;98.20;;;;;;5044255;28;20458;-76
2022/04/26 08:18:09;;;;;;;1.50;1.00;;;10.30;98.20;;;;;;5043184;28;20489;-76
2022/04/26 08:20:38;;;;;;;1.50;1.10;;;10.40;98.20;;;;;;5044107;28;20469;-76
2022/04/26 08:23:06;;;;;;;1.50;1.00;;;10.50;98.20;;;;;;5042313;28;21140;-77
2022/04/26 08:28:18;;;;;;;1.50;1.30;;;10.70;98.20;;;;;;5043356;28;20960;-76
2022/04/26 08:30:45;;;;;;;1.50;1.20;;;10.70;98.20;;;;;;5033870;28;20486;-76
2022/04/26 08:33:11;;;;;;;4.80;2.77;;;10.80;98.20;;;;;;5037618;28;20569;-77
2022/04/26 08:35:40;;;;;;;1.50;1.00;;;10.80;98.20;;;;;;5035922;28;20474;-77
2022/04/26 08:38:07;;;;;;;1.50;1.20;;;10.80;98.20;;;;;;5037421;28;21039;-76
2022/04/26 08:40:33;;;;;;;1.50;1.10;;;10.80;98.20;;;;;;5041514;28;20466;-77
2022/04/26 08:43:02;;;;;;;1.50;1.20;;;10.80;98.20;;;;;;5069992;22;20506;-78
2022/04/26 08:45:29;;;;;;;1.63;1.53;;;10.80;98.20;;;;;;5049863;28;20488;-78
2022/04/26 08:53:27;;;;;;;1.50;1.10;;;10.60;98.20;;;;;;5073359;28;20573;-78
2022/04/26 08:55:55;;;;;;;1.50;1.03;;;10.60;98.20;;;;;;5080165;28;20453;-78
2022/04/26 08:58:25;;;;;;;1.50;1.00;;;10.70;98.20;;;;;;5078186;28;20468;-78
2022/04/26 09:01:10;;;;;;;1.50;1.10;;;10.70;98.20;;;;;;5079358;28;20517;-78
2022/04/26 09:03:38;;;;;;;1.50;1.20;;;10.60;98.20;;;;;;5080744;28;20532;-78
2022/04/26 09:06:09;;;;;;;1.50;1.00;;;10.60;98.20;;;;;;5080135;28;20540;-78
2022/04/26 09:08:36;;;;;;;1.50;1.10;;;10.70;98.20;;;;;;5084376;28;20461;-78
2022/04/26 09:11:04;;;;;;;1.50;1.00;;;10.70;98.20;;;;;;5081297;28;20471;-78
2022/04/26 09:13:41;;;;;;;1.50;1.00;;;10.90;98.20;;;;;;5076850;28;20512;-78
2022/04/26 09:16:17;;;;;;;1.73;1.63;;;11.10;98.20;;;;;;5071561;28;20487;-78
2022/04/26 09:18:53;;;;;;;1.50;1.07;;;11.10;98.20;;;;;;5081449;28;20461;-78
2022/04/26 09:21:36;;;;;;;1.50;1.10;;;11.20;98.20;;;;;;5078702;28;20458;-78
2022/04/26 09:24:05;;;;;;;1.50;1.00;;;11.40;98.20;;;;;;5079315;28;20544;-78
2022/04/26 09:26:36;;;;;;;1.50;1.07;;;11.50;98.20;;;;;;5084327;28;20461;-77
2022/04/26 09:29:04;;;;;;;2.47;2.27;;;11.50;98.20;;;;;;5081030;28;20476;-78
2022/04/26 09:31:34;;;;;;;1.50;1.10;;;11.60;98.20;;;;;;5077673;28;20516;-78
2022/04/26 09:34:05;;;;;;;1.50;1.10;;;11.80;98.20;;;;;;5080196;28;20484;-77
2022/04/26 09:36:46;;;;;;;1.50;1.00;;;11.90;98.20;;;;;;5079347;28;20500;-77
2022/04/26 09:39:18;;;;;;;1.47;0.90;;;12.10;98.20;;;;;;5078310;28;20462;-76
2022/04/26 09:41:49;;;;;;;2.27;1.87;;;12.20;98.20;;;;;;5070569;28;20479;-77
2022/04/26 09:44:17;;;;;;;2.80;2.60;;;12.30;98.20;;;;;;5061169;28;20954;-77
2022/04/26 09:46:48;;;;;;;1.50;1.00;;;12.20;98.20;;;;;;5071194;28;20458;-78
2022/04/26 09:49:18;;;;;;;1.50;1.00;;;12.20;98.20;;;;;;5067349;28;20464;-78
2022/04/26 09:51:47;;;;;;;1.50;1.00;;;12.20;98.20;;;;;;5077229;28;20932;-78
2022/04/26 09:54:13;;;;;;;1.50;0.97;;;12.20;98.20;;;;;;5079807;28;20489;-81
2022/04/26 09:56:40;;;;;;;1.50;1.00;;;12.20;98.20;;;;;;5075079;28;20468;-81
2022/04/26 09:59:07;;;;;;;1.50;1.00;;;12.20;98.20;;;;;;5087231;28;20461;-78
2022/04/26 10:04:05;;;;;;;2.90;2.70;;;12.20;98.20;;;;;;5083313;22;20488;-78
2022/04/26 10:06:35;;;;;;;1.50;1.00;;;12.20;98.20;;;;;;5065453;28;20482;-79
2022/04/26 10:09:04;;;;;;;2.60;1.20;;;12.20;98.20;;;;;;5073121;28;20537;-81
2022/04/26 10:11:31;;;;;;;1.50;1.00;;;12.20;98.20;;;;;;5077888;28;20453;-79
2022/04/26 10:13:59;;;;;;;1.50;1.00;;;12.20;98.20;;;;;;5067080;28;20489;-78
2022/04/26 10:16:26;;;;;;;1.50;1.00;;;12.20;98.20;;;;;;5054950;28;20477;-78
2022/04/26 10:19:02;;;;;;;1.50;1.00;;;12.20;98.20;;;;;;5077400;28;20547;-79
2022/04/26 10:21:50;;;;;;;1.50;0.93;;;12.30;98.20;;;;;;5064279;28;20465;-77
2022/04/26 10:24:23;;;;;;;1.50;1.07;;;12.30;98.20;;;;;;5056056;28;20454;-82
2022/04/26 10:26:52;;;;;;;1.50;1.00;;;12.40;98.20;;;;;;5076752;28;20555;-79
2022/04/26 10:29:21;;;;;;;1.50;0.93;;;12.50;98.20;;;;;;5070434;28;20453;-79
2022/04/26 10:31:50;;;;;;;1.50;1.00;;;12.60;98.20;;;;;;5072589;28;20486;-79
2022/04/26 10:34:25;;;;;;;1.50;1.00;;;12.70;98.20;;;;;;5063441;28;20519;-79
2022/04/26 10:36:53;;;;;;;1.50;1.20;;;12.70;98.20;;;;;;5066763;28;20489;-79
2022/04/26 10:39:31;;;;;;;1.50;1.03;;;12.70;98.20;;;;;;5073365;28;20485;-78
2022/04/26 10:41:59;;;;;;;1.60;1.30;;;12.70;98.20;;;;;;5064826;28;20490;-79
2022/04/26 10:44:30;;;;;;;1.50;1.00;;;12.80;98.20;;;;;;5073589;28;20471;-77
2022/04/26 10:47:34;;;;;;;1.57;1.30;;;12.80;98.20;;;;;;5067264;28;20473;-78
2022/04/26 10:50:03;;;;;;;1.50;1.10;;;12.90;98.20;;;;;;5066045;28;20453;-78
2022/04/26 10:52:38;;;;;;;1.50;1.20;;;12.90;98.20;;;;;;5064127;28;20786;-78
2022/04/26 10:55:09;;;;;;;1.50;1.00;;;12.90;98.20;;;;;;5067026;28;20484;-78
2022/04/26 10:57:38;;;;;;;1.50;1.00;;;13.00;98.20;;;;;;5062542;28;20484;-77
2022/04/26 11:00:08;;;;;;;1.50;0.90;;;13.10;98.20;;;;;;5067806;28;20485;-79
2022/04/26 11:02:37;;;;;;;1.50;1.00;;;13.20;98.20;;;;;;5068835;28;20481;-78
2022/04/26 11:05:08;;;;;;;1.50;1.00;;;13.30;98.20;;;;;;5068483;28;20492;-78
2022/04/26 11:07:36;;;;;;;1.50;1.00;;;13.40;98.20;;;;;;5059488;28;20450;-79
2022/04/26 11:10:04;;;;;;;1.50;1.00;;;13.60;98.20;;;;;;5066060;28;20462;-78
2022/04/26 11:12:35;;;;;;;1.50;0.90;;;13.90;98.20;;;;;;5066962;28;20909;-78
2022/04/26 11:15:03;;;;;;;2.67;2.47;;;14.10;98.20;;;;;;5076788;28;20511;-78
2022/04/26 11:17:30;;;;;;;1.50;1.00;;;14.50;98.20;;;;;;5066319;28;20462;-78
2022/04/26 11:19:58;;;;;;;1.50;1.00;;;14.70;98.20;;;;;;5070219;28;20468;-78
2022/04/26 11:22:27;;;;;;;1.50;1.00;;;15.00;98.20;;;;;;5071497;28;20564;-79
2022/04/26 11:28:02;;;;;;;1.50;1.00;;;15.90;96.20;;;;;;5068239;28;20464;-80
2022/04/26 11:30:31;;;;;;;1.50;1.00;;;16.20;94.50;;;;;;5067685;28;20465;-79
2022/04/26 11:32:59;;;;;;;1.50;0.90;;;16.40;92.50;;;;;;5067035;28;20484;-79
2022/04/26 11:35:26;;;;;;;1.50;1.00;;;16.50;92.60;;;;;;5070258;28;20520;-78
2022/04/26 11:37:55;;;;;;;1.50;0.90;;;16.80;92.40;;;;;;5060718;28;20469;-76
2022/04/26 11:40:27;;;;;;;1.50;1.00;;;16.90;91.70;;;;;;5068285;28;20469;-78
2022/04/26 11:42:57;;;;;;;1.50;1.00;;;17.10;92.40;;;;;;5063646;28;21501;-78
2022/04/26 11:45:28;;;;;;;1.50;1.00;;;17.10;91.10;;;;;;5062790;28;20997;-77
2022/04/26 11:47:56;;;;;;;1.47;0.90;;;17.00;90.80;;;;;;5070698;28;20488;-78
2022/04/26 11:50:24;;;;;;;1.70;1.30;;;16.90;90.30;;;;;;5067423;28;20460;-79
2022/04/26 11:52:53;;;;;;;1.50;0.90;;;16.70;89.40;;;;;;5064448;28;20509;-76
2022/04/26 11:55:26;;;;;;;1.53;0.97;;;16.80;92.80;;;;;;5069607;28;20522;-77
2022/04/26 11:58:04;;;;;;;1.50;0.90;;;17.10;91.90;;;;;;5066791;28;20528;-78
2022/04/26 12:00:32;;;;;;;1.50;1.00;;;17.30;91.90;;;;;;5068170;28;20470;-79
2022/04/26 12:02:59;;;;;;;1.50;0.90;;;17.50;91.90;;;;;;5051909;28;20490;-76
2022/04/26 12:05:26;;;;;;;1.50;0.90;;;17.70;91.60;;;;;;5060128;28;20683;-80
2022/04/26 12:07:53;;;;;;;1.50;0.90;;;18.00;88.90;;;;;;5061994;28;20530;-77
2022/04/26 12:10:32;;;;;;;1.50;0.90;;;18.30;88.50;;;;;;5066194;28;20457;-78
2022/04/26 12:13:02;;;;;;;1.50;1.00;;;18.60;86.40;;;;;;5067305;28;20478;-78
2022/04/26 12:15:31;;;;;;;1.50;0.90;;;19.00;85.50;;;;;;5067033;28;20519;-80
2022/04/26 12:18:09;;;;;;;1.50;1.00;;;19.10;84.90;;;;;;5066253;28;20458;-78
2022/04/26 12:20:36;;;;;;;1.67;1.20;;;19.00;84.30;;;;;;5059879;28;20454;-78
2022/04/26 12:23:04;;;;;;;1.53;1.17;;;18.80;84.90;;;;;;5067681;28;20548;-78
2022/04/26 12:25:33;;;;;;;1.50;0.90;;;18.60;85.00;;;;;;5064446;28;20488;-78
2022/04/26 12:28:08;;;;;;;1.50;1.07;;;18.40;85.10;;;;;;5064701;28;20517;-78
2022/04/26 12:30:38;;;;;;;1.50;0.90;;;18.30;85.60;;;;;;5071437;28;20460;-78
2022/04/26 12:33:08;;;;;;;1.50;0.90;;;18.50;88.20;;;;;;5065814;28;20489;-78
2022/04/26 12:35:34;;;;;;;1.70;1.30;;;18.90;87.20;;;;;;5069475;28;20528;-77
2022/04/26 12:38:09;;;;;;;1.47;0.90;;;19.00;85.00;;;;;;5073294;28;20973;-79
2022/04/26 12:40:36;;;;;;;3.40;3.20;;;19.20;85.00;;;;;;5061335;28;20537;-77
2022/04/26 12:43:04;;;;;;;1.50;0.90;;;19.40;84.60;;;;;;5061229;28;20517;-77
2022/04/26 12:45:32;;;;;;;1.47;0.90;;;19.50;83.80;;;;;;5068645;28;20537;-78
2022/04/26 12:50:52;;;;;;;1.50;0.90;;;18.90;86.40;;;;;;5065525;28;20511;-78
2022/04/26 12:53:24;;;;;;;1.43;0.90;;;19.00;84.50;;;;;;5064122;28;20477;-78
2022/04/26 12:55:51;;;;;;;1.50;0.90;;;19.30;84.00;;;;;;5067263;28;20581;-77
2022/04/26 12:58:20;;;;;;;1.70;1.27;;;19.60;83.40;;;;;;5072457;28;20489;-79
2022/04/26 13:00:50;;;;;;;1.50;1.00;;;19.90;82.40;;;;;;5077888;28;20906;-77
2022/04/26 13:03:18;;;;;;;1.50;0.90;;;20.10;82.10;;;;;;5070123;28;20489;-78
2022/04/26 13:05:46;;;;;;;1.50;0.90;;;20.10;81.30;;;;;;5073801;28;20477;-78
2022/04/26 13:08:14;;;;;;;1.50;0.90;;;20.10;80.90;;;;;;5075854;28;20465;-78
2022/04/26 13:10:41;;;;;;;1.50;0.90;;;20.00;81.80;;;;;;5078656;28;20461;-78
2022/04/26 13:13:09;;;;;;;1.50;1.10;;;20.10;80.40;;;;;;5063076;28;20565;-78
2022/04/26 13:15:36;;;;;;;1.47;0.90;;;20.30;81.20;;;;;;5065376;28;20490;-78
2022/04/26 13:18:05;;;;;;;1.50;1.00;;;20.50;81.00;;;;;;5069235;28;20465;-78
2022/04/26 13:20:34;;;;;;;1.50;0.90;;;20.60;79.90;;;;;;5069878;28;20812;-80
2022/04/26 13:23:02;;;;;;;1.50;0.90;;;20.50;77.80;;;;;;5067493;28;20488;-78
2022/04/26 13:25:29;;;;;;;1.47;0.90;;;20.00;78.90;;;;;;5069552;28;20472;-79
2022/04/26 13:27:56;;;;;;;1.50;1.10;;;19.40;80.40;;;;;;5078841;28;20488;-81
2022/04/26 13:30:24;;;;;;;1.50;0.90;;;19.20;81.40;;;;;;5070897;28;20466;-78
2022/04/26 13:32:52;;;;;;;1.47;0.90;;;18.80;81.50;;;;;;5070014;28;20485;-77
2022/04/26 13:35:20;;;;;;;1.43;0.90;;;18.60;85.30;;;;;;5063000;28;20486;-77
2022/04/26 13:37:47;;;;;;;1.50;0.97;;;18.70;86.60;;;;;;5076160;28;20458;-79
2022/04/26 13:40:14;;;;;;;1.40;0.90;;;18.80;84.40;;;;;;5067635;28;20518;-79
2022/04/26 13:42:41;;;;;;;1.47;0.90;;;19.00;82.90;;;;;;5064647;28;20477;-78
2022/04/26 13:45:08;;;;;;;1.50;0.90;;;19.30;83.40;;;;;;5065706;28;20465;-78
2022/04/26 13:47:36;;;;;;;1.47;0.90;;;19.30;81.20;;;;;;5066459;28;20461;-77
2022/04/26 13:50:07;;;;;;;1.60;1.10;;;19.40;81.60;;;;;;5064513;28;20465;-78
2022/04/26 13:52:35;;;;;;;1.50;0.90;;;19.50;81.20;;;;;;5068173;28;20498;-77
2022/04/26 13:55:02;;;;;;;1.50;1.10;;;19.40;80.20;;;;;;5071083;28;20508;-80
2022/04/26 13:57:29;;;;;;;1.50;1.00;;;19.40;82.30;;;;;;5070484;28;20470;-77
2022/04/26 13:59:56;;;;;;;1.43;0.90;;;19.40;81.80;;;;;;5063648;28;20669;-79
2022/04/26 14:02:22;;;;;;;1.43;0.90;;;19.50;83.90;;;;;;5060663;28;20933;-78
2022/04/26 14:04:49;;;;;;;1.60;1.20;;;19.80;83.30;;;;;;5066721;28;20486;-78
2022/04/26 14:07:17;;;;;;;1.50;0.90;;;20.00;81.80;;;;;;5061546;28;20462;-77
2022/04/26 14:09:45;;;;;;;1.50;0.80;;;19.80;80.70;;;;;;5072189;28;20493;-78
2022/04/26 14:12:14;;;;;;;4.70;2.00;;;19.60;82.90;;;;;;5065317;28;20478;-78
2022/04/26 14:22:54;;;;;;;1.50;0.90;;;19.60;82.10;;;;;;5060175;28;20843;-79
2022/04/26 14:25:23;;;;;;;1.50;0.90;;;19.40;82.40;;;;;;5073068;28;20462;-78
2022/04/26 14:27:51;;;;;;;1.47;0.90;;;19.30;82.40;;;;;;5062026;28;20489;-78
2022/04/26 14:30:18;;;;;;;1.47;0.90;;;19.10;84.20;;;;;;5065598;28;20457;-78
2022/04/26 14:32:45;;;;;;;1.47;0.90;;;19.20;84.50;;;;;;5067084;28;20483;-77
2022/04/26 14:35:12;;;;;;;1.50;1.10;;;19.40;83.70;;;;;;5067588;28;20920;-77
2022/04/26 14:37:40;;;;;;;1.50;1.27;;;19.40;83.10;;;;;;5058467;28;20492;-77
2022/04/26 14:40:09;;;;;;;1.47;0.90;;;19.50;83.50;;;;;;5068491;28;20458;-78
2022/04/26 14:42:38;;;;;;;1.60;1.20;;;19.70;82.60;;;;;;5065395;28;20487;-78
2022/04/26 14:45:05;;;;;;;1.47;0.90;;;19.90;82.10;;;;;;5060554;28;20591;-78
2022/04/26 14:47:33;;;;;;;1.43;0.90;;;20.10;78.40;;;;;;5069910;28;20557;-78
2022/04/26 14:50:04;;;;;;;2.90;2.70;;;20.10;80.10;;;;;;5070561;28;20525;-80
2022/04/26 14:52:32;;;;;;;1.50;0.90;;;20.10;78.70;;;;;;5063444;28;20482;-79
2022/04/26 14:55:01;;;;;;;1.47;1.00;;;20.20;79.10;;;;;;5075120;28;20488;-78
2022/04/26 14:57:28;;;;;;;1.50;0.90;;;20.30;77.90;;;;;;5064454;28;20535;-78
2022/04/26 14:59:56;;;;;;;1.47;0.90;;;20.00;77.70;;;;;;5068798;28;20504;-79
2022/04/26 15:02:23;;;;;;;1.47;0.90;;;20.10;77.10;;;;;;5064571;28;20488;-77
2022/04/26 15:04:51;;;;;;;1.50;1.00;;;20.20;77.70;;;;;;5059237;28;20471;-80
2022/04/26 15:07:18;;;;;;;1.50;0.90;;;20.20;77.10;;;;;;5061799;28;20474;-78
2022/04/26 15:09:46;;;;;;;1.50;1.10;;;20.00;77.60;;;;;;5072020;28;20458;-78
2022/04/26 15:17:48;;;;;;;1.50;0.90;;;18.60;79.10;;;;;;5065140;28;20816;-78
2022/04/26 15:20:15;;;;;;;1.50;0.90;;;17.90;81.60;;;;;;5055896;28;20461;-78
2022/04/26 15:22:42;;;;;;;1.50;0.90;;;17.30;84.20;;;;;;5062424;28;20482;-77
2022/04/26 15:25:10;;;;;;;1.50;0.90;;;16.90;87.00;;;;;;5060294;28;20462;-77
2022/04/26 15:27:38;;;;;;;1.50;0.90;;;16.10;89.80;;;;;;5053019;28;20458;-76
2022/04/26 15:30:11;;;;;;;1.60;1.30;;;15.30;92.50;;;;;;5068115;28;20523;-77
2022/04/26 15:32:38;;;;;;;1.47;0.90;;;14.80;95.70;;;;;;5055750;28;20473;-75
2022/04/26 15:35:06;;;;;;;1.50;0.90;;;14.50;97.10;;;;;;5061599;28;20457;-77
2022/04/26 15:37:33;;;;;;;1.50;1.00;;;14.20;97.50;;;;;;5051162;28;20469;-75
2022/04/26 15:40:00;;;;;;;1.50;1.10;;;14.00;98.20;;;;;;5062440;28;20493;-76
2022/04/26 15:42:27;;;;;;;1.50;0.90;;;13.90;98.20;;;;;;5052085;28;20564;-77
2022/04/26 15:44:54;;;;;;;1.50;1.00;;;13.80;98.20;;;;;;5052508;28;20497;-77
2022/04/26 15:47:22;;;;;;;1.60;1.20;;;13.70;98.20;;;;;;5057683;28;20536;-77
2022/04/26 15:49:49;;;;;;;1.50;1.00;;;13.60;98.20;;;;;;5050110;28;20966;-77
2022/04/26 15:52:16;;;;;;;1.50;0.90;;;13.70;98.20;;;;;;5050996;28;20564;-76
2022/04/26 15:54:43;;;;;;;1.50;1.00;;;13.70;98.20;;;;;;5064499;28;20543;-76
2022/04/26 15:57:11;;;;;;;1.50;1.00;;;13.50;98.20;;;;;;5051473;28;20493;-77
2022/04/26 15:59:39;;;;;;;1.50;1.00;;;13.40;98.20;;;;;;5058548;28;20465;-77
2022/04/26 16:02:07;;;;;;;1.47;1.00;;;13.20;98.20;;;;;;5064106;28;20491;-76
2022/04/26 16:04:36;;;;;;;1.50;1.00;;;13.00;98.20;;;;;;5065085;28;20535;-77
2022/04/26 16:07:03;;;;;;;1.50;1.00;;;13.00;98.20;;;;;;5060162;28;20489;-78
2022/04/26 16:20:32;;;;;;;1.50;1.00;;;13.00;98.20;;;;;;5068262;28;20574;-79
2022/04/26 16:23:15;;;;;;;1.47;1.00;;;13.00;98.20;;;;;;5057847;28;20562;-76
2022/04/26 16:25:42;;;;;;;1.50;1.00;;;13.10;98.20;;;;;;5066875;28;20476;-77
2022/04/26 16:28:10;;;;;;;1.50;0.90;;;13.10;98.20;;;;;;5065021;28;20492;-77
2022/04/26 16:30:40;;;;;;;1.47;1.00;;;13.00;98.20;;;;;;5070741;28;20468;-77
2022/04/26 16:33:07;;;;;;;1.47;1.00;;;13.00;98.20;;;;;;5068494;28;21015;-78
2022/04/26 16:35:35;;;;;;;1.50;1.00;;;13.00;98.20;;;;;;5068056;28;21055;-79
2022/04/26 16:38:02;;;;;;;1.50;1.10;;;12.90;98.20;;;;;;5069125;28;20463;-79
2022/04/26 16:40:31;;;;;;;1.50;1.00;;;12.90;98.20;;;;;;5075183;28;20468;-77
2022/04/26 16:42:58;;;;;;;1.50;1.00;;;13.00;98.20;;;;;;5063846;28;20949;-77
2022/04/26 16:45:25;;;;;;;1.43;1.00;;;13.00;98.20;;;;;;5060246;28;20462;-78
2022/04/26 16:47:53;;;;;;;1.47;1.00;;;13.10;98.20;;;;;;5067139;28;20472;-77
2022/04/26 16:50:19;;;;;;;1.50;1.10;;;13.10;98.20;;;;;;5061277;28;20470;-78
2022/04/26 16:52:49;;;;;;;1.50;1.00;;;13.20;98.20;;;;;;5067413;28;20488;-78
2022/04/26 16:55:16;;;;;;;1.43;0.90;;;13.30;98.20;;;;;;5070631;28;20457;-78
2022/04/26 16:57:43;;;;;;;1.50;1.00;;;13.30;98.20;;;;;;5068433;28;20693;-78
2022/04/26 17:00:14;;;;;;;1.47;1.00;;;13.30;98.20;;;;;;5063436;28;20465;-77
2022/04/26 17:02:41;;;;;;;1.50;1.10;;;13.30;98.20;;;;;;5065905;28;20576;-78
2022/04/26 17:05:10;;;;;;;1.50;1.00;;;13.40;98.20;;;;;;5067329;28;20469;-78
2022/04/26 17:07:37;;;;;;;1.50;1.00;;;13.40;98.20;;;;;;5072430;28;20847;-78
2022/04/26 17:10:08;;;;;;;1.50;1.00;;;13.30;98.20;;;;;;5061958;28;20942;-75
2022/04/26 17:12:35;;;;;;;1.50;1.10;;;13.30;98.20;;;;;;5058570;28;20490;-77
2022/04/26 17:15:04;;;;;;;1.50;1.00;;;13.10;98.20;;;;;;5061428;28;21225;-76
2022/04/26 17:17:33;;;;;;;1.50;1.00;;;13.10;98.20;;;;;;5064602;28;21009;-76